sensor_id;sensor_type;location;lat;lon;timestamp;pressure;altitude;pressure_sealevel;temperature
6550;BMP280;15142;48.888;9.134;2023-08-01T00:00:08;97139.34;;;18.50
6550;BMP280;15142;48.888;9.134;2023-08-01T00:02:40;97138.28;;;18.51
6550;BMP280;15142;48.888;9.134;2023-08-01T00:05:13;97134.06;;;18.43
6550;BMP280;15142;48.888;9.134;2023-08-01T00:07:41;97139.91;;;18.37
6550;BMP280;15142;48.888;9.134;2023-08-01T00:10:10;97134.59;;;18.30
6550;BMP280;15142;48.888;9.134;2023-08-01T00:12:38;97129.97;;;18.17
6550;BMP280;15142;48.888;9.134;2023-08-01T00:15:08;97124.00;;;18.13
6550;BMP280;15142;48.888;9.134;2023-08-01T00:17:37;97121.03;;;18.11
6550;BMP280;15142;48.888;9.134;2023-08-01T00:20:07;97121.28;;;18.06
6550;BMP280;15142;48.888;9.134;2023-08-01T00:22:38;97116.44;;;18.01
6550;BMP280;15142;48.888;9.134;2023-08-01T00:25:07;97104.50;;;17.93
6550;BMP280;15142;48.888;9.134;2023-08-01T00:27:36;97098.84;;;17.88
6550;BMP280;15142;48.888;9.134;2023-08-01T00:30:06;97102.19;;;17.88
6550;BMP280;15142;48.888;9.134;2023-08-01T00:32:35;97104.50;;;17.93
6550;BMP280;15142;48.888;9.134;2023-08-01T00:35:04;97086.00;;;17.91
6550;BMP280;15142;48.888;9.134;2023-08-01T00:37:32;97064.97;;;17.89
6550;BMP280;15142;48.888;9.134;2023-08-01T00:40:05;97048.91;;;17.80
6550;BMP280;15142;48.888;9.134;2023-08-01T00:42:35;97052.22;;;17.77
6550;BMP280;15142;48.888;9.134;2023-08-01T00:45:05;97052.88;;;17.74
6550;BMP280;15142;48.888;9.134;2023-08-01T00:47:34;97034.78;;;17.71
6550;BMP280;15142;48.888;9.134;2023-08-01T00:50:03;97034.03;;;17.70
6550;BMP280;15142;48.888;9.134;2023-08-01T00:52:32;97034.81;;;17.74
6550;BMP280;15142;48.888;9.134;2023-08-01T00:55:05;97023.75;;;17.74
6550;BMP280;15142;48.888;9.134;2023-08-01T00:57:34;97023.69;;;17.70
6550;BMP280;15142;48.888;9.134;2023-08-01T01:00:04;97018.91;;;17.72
6550;BMP280;15142;48.888;9.134;2023-08-01T01:02:33;97010.84;;;17.74
6550;BMP280;15142;48.888;9.134;2023-08-01T01:05:02;96999.84;;;17.77
6550;BMP280;15142;48.888;9.134;2023-08-01T01:07:31;96999.47;;;17.78
6550;BMP280;15142;48.888;9.134;2023-08-01T01:10:00;96998.78;;;17.81
6550;BMP280;15142;48.888;9.134;2023-08-01T01:12:31;96999.59;;;17.85
6550;BMP280;15142;48.888;9.134;2023-08-01T01:15:00;96993.00;;;17.88
6550;BMP280;15142;48.888;9.134;2023-08-01T01:17:31;96998.28;;;17.94
6550;BMP280;15142;48.888;9.134;2023-08-01T01:19:59;97002.00;;;17.97
6550;BMP280;15142;48.888;9.134;2023-08-01T01:22:31;96994.66;;;17.99
6550;BMP280;15142;48.888;9.134;2023-08-01T01:25:02;97002.81;;;18.01
6550;BMP280;15142;48.888;9.134;2023-08-01T01:27:32;97002.06;;;18.00
6550;BMP280;15142;48.888;9.134;2023-08-01T01:30:03;96998.28;;;17.94
6550;BMP280;15142;48.888;9.134;2023-08-01T01:32:32;96998.91;;;17.88
6550;BMP280;15142;48.888;9.134;2023-08-01T01:35:03;97000.09;;;17.72
6550;BMP280;15142;48.888;9.134;2023-08-01T01:37:34;96987.78;;;17.62
6550;BMP280;15142;48.888;9.134;2023-08-01T01:40:03;97003.16;;;17.55
6550;BMP280;15142;48.888;9.134;2023-08-01T01:42:31;96999.78;;;17.51
6550;BMP280;15142;48.888;9.134;2023-08-01T01:45:00;96993.75;;;17.44
6550;BMP280;15142;48.888;9.134;2023-08-01T01:47:29;96973.56;;;17.27
6550;BMP280;15142;48.888;9.134;2023-08-01T01:49:58;96963.81;;;17.17
6550;BMP280;15142;48.888;9.134;2023-08-01T01:52:26;96968.16;;;17.13
6550;BMP280;15142;48.888;9.134;2023-08-01T01:54:57;96962.34;;;17.20
6550;BMP280;15142;48.888;9.134;2023-08-01T01:57:27;96948.28;;;17.14
6550;BMP280;15142;48.888;9.134;2023-08-01T01:59:56;96953.38;;;17.11
6550;BMP280;15142;48.888;9.134;2023-08-01T02:02:24;96939.38;;;17.11
6550;BMP280;15142;48.888;9.134;2023-08-01T02:04:53;96938.56;;;17.08
6550;BMP280;15142;48.888;9.134;2023-08-01T02:07:22;96960.69;;;17.09
6550;BMP280;15142;48.888;9.134;2023-08-01T02:09:50;96967.91;;;17.00
6550;BMP280;15142;48.888;9.134;2023-08-01T02:12:22;96946.56;;;17.03
6550;BMP280;15142;48.888;9.134;2023-08-01T02:14:50;96958.41;;;17.04
6550;BMP280;15142;48.888;9.134;2023-08-01T02:17:19;96959.88;;;17.05
6550;BMP280;15142;48.888;9.134;2023-08-01T02:19:47;96940.81;;;17.09
6550;BMP280;15142;48.888;9.134;2023-08-01T02:22:16;96934.22;;;17.11
6550;BMP280;15142;48.888;9.134;2023-08-01T02:24:45;96947.13;;;17.11
6550;BMP280;15142;48.888;9.134;2023-08-01T02:27:15;96946.44;;;17.14
6550;BMP280;15142;48.888;9.134;2023-08-01T02:29:46;96949.06;;;17.18
6550;BMP280;15142;48.888;9.134;2023-08-01T02:32:15;96950.38;;;17.09
6550;BMP280;15142;48.888;9.134;2023-08-01T02:34:44;96931.25;;;17.10
6550;BMP280;15142;48.888;9.134;2023-08-01T02:37:13;96941.22;;;17.11
6550;BMP280;15142;48.888;9.134;2023-08-01T02:39:42;96949.69;;;17.11
6550;BMP280;15142;48.888;9.134;2023-08-01T02:42:11;96935.69;;;17.12
6550;BMP280;15142;48.888;9.134;2023-08-01T02:44:39;96937.22;;;17.13
6550;BMP280;15142;48.888;9.134;2023-08-01T02:47:10;96932.06;;;17.13
6550;BMP280;15142;48.888;9.134;2023-08-01T02:49:40;96921.59;;;17.07
6550;BMP280;15142;48.888;9.134;2023-08-01T02:52:08;96918.69;;;17.08
6550;BMP280;15142;48.888;9.134;2023-08-01T02:54:37;96907.63;;;17.08
6550;BMP280;15142;48.888;9.134;2023-08-01T02:57:05;96920.69;;;16.96
6550;BMP280;15142;48.888;9.134;2023-08-01T02:59:34;96915.13;;;16.94
6550;BMP280;15142;48.888;9.134;2023-08-01T03:02:03;96903.34;;;16.96
6550;BMP280;15142;48.888;9.134;2023-08-01T03:04:34;96894.97;;;16.99
6550;BMP280;15142;48.888;9.134;2023-08-01T03:07:03;96904.09;;;16.97
6550;BMP280;15142;48.888;9.134;2023-08-01T03:09:32;96893.13;;;17.00
6550;BMP280;15142;48.888;9.134;2023-08-01T03:12:00;96895.44;;;17.05
6550;BMP280;15142;48.888;9.134;2023-08-01T03:14:29;96892.41;;;16.99
6550;BMP280;15142;48.888;9.134;2023-08-01T03:17:00;96891.38;;;17.04
6550;BMP280;15142;48.888;9.134;2023-08-01T03:19:29;96898.56;;;16.95
6550;BMP280;15142;48.888;9.134;2023-08-01T03:22:00;96890.28;;;17.05
6550;BMP280;15142;48.888;9.134;2023-08-01T03:24:29;96896.53;;;17.04
6550;BMP280;15142;48.888;9.134;2023-08-01T03:27:00;96907.50;;;17.01
6550;BMP280;15142;48.888;9.134;2023-08-01T03:29:29;96897.94;;;17.01
6550;BMP280;15142;48.888;9.134;2023-08-01T03:31:57;96899.91;;;17.08
6550;BMP280;15142;48.888;9.134;2023-08-01T03:34:26;96894.34;;;17.06
6550;BMP280;15142;48.888;9.134;2023-08-01T03:36:55;96887.28;;;17.03
6550;BMP280;15142;48.888;9.134;2023-08-01T03:39:26;96892.44;;;17.03
6550;BMP280;15142;48.888;9.134;2023-08-01T03:41:55;96888.78;;;17.04
6550;BMP280;15142;48.888;9.134;2023-08-01T03:44:23;96883.97;;;17.02
6550;BMP280;15142;48.888;9.134;2023-08-01T03:46:52;96877.13;;;16.91
6550;BMP280;15142;48.888;9.134;2023-08-01T03:49:20;96875.00;;;16.96
6550;BMP280;15142;48.888;9.134;2023-08-01T03:51:49;96872.44;;;16.96
6550;BMP280;15142;48.888;9.134;2023-08-01T03:54:18;96873.56;;;16.95
6550;BMP280;15142;48.888;9.134;2023-08-01T03:56:49;96860.44;;;17.04
6550;BMP280;15142;48.888;9.134;2023-08-01T03:59:18;96853.91;;;17.10
6550;BMP280;15142;48.888;9.134;2023-08-01T04:01:47;96844.38;;;17.13
6550;BMP280;15142;48.888;9.134;2023-08-01T04:04:16;96842.47;;;17.33
6550;BMP280;15142;48.888;9.134;2023-08-01T04:06:45;96815.06;;;17.47
6550;BMP280;15142;48.888;9.134;2023-08-01T04:09:14;96781.72;;;17.61
6550;BMP280;15142;48.888;9.134;2023-08-01T04:11:42;96741.19;;;17.65
6550;BMP280;15142;48.888;9.134;2023-08-01T04:14:13;96726.88;;;17.70
6550;BMP280;15142;48.888;9.134;2023-08-01T04:16:42;96717.25;;;17.67
6550;BMP280;15142;48.888;9.134;2023-08-01T04:19:11;96726.31;;;17.84
6550;BMP280;15142;48.888;9.134;2023-08-01T04:21:39;96733.38;;;17.90
6550;BMP280;15142;48.888;9.134;2023-08-01T04:24:08;96742.63;;;17.91
6550;BMP280;15142;48.888;9.134;2023-08-01T04:26:37;96754.97;;;18.08
6550;BMP280;15142;48.888;9.134;2023-08-01T04:29:06;96763.88;;;18.14
6550;BMP280;15142;48.888;9.134;2023-08-01T04:31:37;96741.13;;;18.22
6550;BMP280;15142;48.888;9.134;2023-08-01T04:34:05;96723.44;;;18.28
6550;BMP280;15142;48.888;9.134;2023-08-01T04:36:34;96722.72;;;18.31
6550;BMP280;15142;48.888;9.134;2023-08-01T04:39:02;96723.09;;;18.29
6550;BMP280;15142;48.888;9.134;2023-08-01T04:41:32;96733.81;;;18.31
6550;BMP280;15142;48.888;9.134;2023-08-01T04:44:00;96740.75;;;18.21
6550;BMP280;15142;48.888;9.134;2023-08-01T04:46:29;96757.53;;;18.08
6550;BMP280;15142;48.888;9.134;2023-08-01T04:49:00;96772.56;;;18.31
6550;BMP280;15142;48.888;9.134;2023-08-01T04:51:28;96782.13;;;18.27
6550;BMP280;15142;48.888;9.134;2023-08-01T04:53:57;96793.84;;;18.21
6550;BMP280;15142;48.888;9.134;2023-08-01T04:56:26;96813.22;;;18.05
6550;BMP280;15142;48.888;9.134;2023-08-01T04:58:54;96810.94;;;17.97
6550;BMP280;15142;48.888;9.134;2023-08-01T05:01:23;96816.69;;;17.87
6550;BMP280;15142;48.888;9.134;2023-08-01T05:03:51;96803.78;;;17.87
6550;BMP280;15142;48.888;9.134;2023-08-01T05:06:22;96827.78;;;17.88
6550;BMP280;15142;48.888;9.134;2023-08-01T05:08:51;96840.63;;;17.84
6550;BMP280;15142;48.888;9.134;2023-08-01T05:11:19;96822.97;;;17.90
6550;BMP280;15142;48.888;9.134;2023-08-01T05:13:48;96813.19;;;18.02
6550;BMP280;15142;48.888;9.134;2023-08-01T05:16:17;96816.16;;;18.04
6550;BMP280;15142;48.888;9.134;2023-08-01T05:18:46;96793.31;;;18.02
6550;BMP280;15142;48.888;9.134;2023-08-01T05:21:14;96783.66;;;17.99
6550;BMP280;15142;48.888;9.134;2023-08-01T05:23:45;96778.94;;;18.05
6550;BMP280;15142;48.888;9.134;2023-08-01T05:26:14;96775.25;;;18.06
6550;BMP280;15142;48.888;9.134;2023-08-01T05:28:42;96781.53;;;18.08
6550;BMP280;15142;48.888;9.134;2023-08-01T05:31:11;96771.59;;;18.10
6550;BMP280;15142;48.888;9.134;2023-08-01T05:33:40;96772.03;;;18.16
6550;BMP280;15142;48.888;9.134;2023-08-01T05:36:08;96777.97;;;18.20
6550;BMP280;15142;48.888;9.134;2023-08-01T05:38:37;96773.56;;;18.20
6550;BMP280;15142;48.888;9.134;2023-08-01T05:41:08;96772.09;;;18.22
6550;BMP280;15142;48.888;9.134;2023-08-01T05:43:37;96780.31;;;18.31
6550;BMP280;15142;48.888;9.134;2023-08-01T05:46:05;96787.75;;;18.36
6550;BMP280;15142;48.888;9.134;2023-08-01T05:48:34;96789.25;;;18.37
6550;BMP280;15142;48.888;9.134;2023-08-01T05:51:02;96787.75;;;18.36
6550;BMP280;15142;48.888;9.134;2023-08-01T05:53:31;96784.44;;;18.39
6550;BMP280;15142;48.888;9.134;2023-08-01T05:56:00;96789.28;;;18.41
6550;BMP280;15142;48.888;9.134;2023-08-01T05:58:32;96797.34;;;18.39
6550;BMP280;15142;48.888;9.134;2023-08-01T06:01:01;96794.47;;;18.44
6550;BMP280;15142;48.888;9.134;2023-08-01T06:03:29;96794.88;;;18.46
6550;BMP280;15142;48.888;9.134;2023-08-01T06:05:58;96793.72;;;18.44
6550;BMP280;15142;48.888;9.134;2023-08-01T06:08:27;96804.03;;;18.40
6550;BMP280;15142;48.888;9.134;2023-08-01T06:10:55;96808.81;;;18.38
6550;BMP280;15142;48.888;9.134;2023-08-01T06:13:24;96799.28;;;18.42
6550;BMP280;15142;48.888;9.134;2023-08-01T06:15:55;96801.91;;;18.49
6550;BMP280;15142;48.888;9.134;2023-08-01T06:18:23;96808.91;;;18.52
6550;BMP280;15142;48.888;9.134;2023-08-01T06:20:52;96810.09;;;18.54
6550;BMP280;15142;48.888;9.134;2023-08-01T06:23:21;96815.97;;;18.51
6550;BMP280;15142;48.888;9.134;2023-08-01T06:25:49;96818.81;;;18.43
6550;BMP280;15142;48.888;9.134;2023-08-01T06:28:18;96820.09;;;18.23
6550;BMP280;15142;48.888;9.134;2023-08-01T06:30:46;96827.00;;;17.84
6550;BMP280;15142;48.888;9.134;2023-08-01T06:33:18;96848.03;;;17.57
6550;BMP280;15142;48.888;9.134;2023-08-01T06:35:47;96857.91;;;17.29
6550;BMP280;15142;48.888;9.134;2023-08-01T06:38:15;96856.94;;;17.15
6550;BMP280;15142;48.888;9.134;2023-08-01T06:40:44;96854.16;;;17.05
6550;BMP280;15142;48.888;9.134;2023-08-01T06:43:19;96862.47;;;16.95
6550;BMP280;15142;48.888;9.134;2023-08-01T06:45:50;96856.91;;;16.93
6550;BMP280;15142;48.888;9.134;2023-08-01T06:48:21;96847.25;;;16.86
6550;BMP280;15142;48.888;9.134;2023-08-01T06:50:49;96837.94;;;16.82
6550;BMP280;15142;48.888;9.134;2023-08-01T06:53:18;96830.84;;;16.76
6550;BMP280;15142;48.888;9.134;2023-08-01T06:55:47;96828.91;;;16.69
6550;BMP280;15142;48.888;9.134;2023-08-01T06:58:16;96827.94;;;16.77
6550;BMP280;15142;48.888;9.134;2023-08-01T07:00:45;96822.66;;;16.70
6550;BMP280;15142;48.888;9.134;2023-08-01T07:03:13;96812.88;;;16.79
6550;BMP280;15142;48.888;9.134;2023-08-01T07:05:44;96816.44;;;16.71
6550;BMP280;15142;48.888;9.134;2023-08-01T07:08:13;96804.13;;;16.65
6550;BMP280;15142;48.888;9.134;2023-08-01T07:10:42;96812.47;;;16.77
6550;BMP280;15142;48.888;9.134;2023-08-01T07:13:10;96812.06;;;16.75
6550;BMP280;15142;48.888;9.134;2023-08-01T07:15:39;96814.91;;;16.70
6550;BMP280;15142;48.888;9.134;2023-08-01T07:18:07;96822.13;;;16.61
6550;BMP280;15142;48.888;9.134;2023-08-01T07:20:36;96818.59;;;16.69
6550;BMP280;15142;48.888;9.134;2023-08-01T07:23:07;96817.09;;;16.68
6550;BMP280;15142;48.888;9.134;2023-08-01T07:25:36;96829.69;;;16.73
6550;BMP280;15142;48.888;9.134;2023-08-01T07:28:04;96822.53;;;16.63
6550;BMP280;15142;48.888;9.134;2023-08-01T07:30:30;96829.44;;;16.59
6550;BMP280;15142;48.888;9.134;2023-08-01T07:33:00;96826.63;;;16.46
6550;BMP280;15142;48.888;9.134;2023-08-01T07:35:29;96828.78;;;16.44
6550;BMP280;15142;48.888;9.134;2023-08-01T07:37:57;96835.28;;;16.38
6550;BMP280;15142;48.888;9.134;2023-08-01T07:40:28;96817.19;;;16.34
6550;BMP280;15142;48.888;9.134;2023-08-01T07:42:57;96816.72;;;16.29
6550;BMP280;15142;48.888;9.134;2023-08-01T07:45:27;96824.69;;;16.43
6550;BMP280;15142;48.888;9.134;2023-08-01T07:47:55;96837.19;;;16.41
6550;BMP280;15142;48.888;9.134;2023-08-01T07:50:24;96835.91;;;16.50
6550;BMP280;15142;48.888;9.134;2023-08-01T07:52:53;96836.69;;;16.54
6550;BMP280;15142;48.888;9.134;2023-08-01T07:55:23;96840.75;;;16.55
6550;BMP280;15142;48.888;9.134;2023-08-01T07:57:54;96833.94;;;16.62
6550;BMP280;15142;48.888;9.134;2023-08-01T08:00:23;96820.88;;;16.74
6550;BMP280;15142;48.888;9.134;2023-08-01T08:02:53;96831.69;;;16.83
6550;BMP280;15142;48.888;9.134;2023-08-01T08:05:22;96823.31;;;16.86
6550;BMP280;15142;48.888;9.134;2023-08-01T08:07:50;96825.94;;;16.89
6550;BMP280;15142;48.888;9.134;2023-08-01T08:10:19;96827.75;;;16.89
6550;BMP280;15142;48.888;9.134;2023-08-01T08:12:45;96836.34;;;16.96
6550;BMP280;15142;48.888;9.134;2023-08-01T08:15:17;96839.22;;;16.91
6550;BMP280;15142;48.888;9.134;2023-08-01T08:17:45;96834.41;;;16.90
6550;BMP280;15142;48.888;9.134;2023-08-01T08:20:14;96817.84;;;16.91
6550;BMP280;15142;48.888;9.134;2023-08-01T08:22:43;96826.50;;;17.02
6550;BMP280;15142;48.888;9.134;2023-08-01T08:25:11;96826.69;;;16.90
6550;BMP280;15142;48.888;9.134;2023-08-01T08:27:40;96822.50;;;17.04
6550;BMP280;15142;48.888;9.134;2023-08-01T08:30:09;96829.91;;;17.06
6550;BMP280;15142;48.888;9.134;2023-08-01T08:32:40;96823.75;;;17.13
6550;BMP280;15142;48.888;9.134;2023-08-01T08:35:09;96828.63;;;17.18
6550;BMP280;15142;48.888;9.134;2023-08-01T08:37:38;96822.78;;;17.25
6550;BMP280;15142;48.888;9.134;2023-08-01T08:40:08;96826.75;;;17.41
6550;BMP280;15142;48.888;9.134;2023-08-01T08:42:36;96818.47;;;17.54
6550;BMP280;15142;48.888;9.134;2023-08-01T08:45:06;96817.84;;;17.61
6550;BMP280;15142;48.888;9.134;2023-08-01T08:47:36;96817.22;;;17.70
6550;BMP280;15142;48.888;9.134;2023-08-01T08:50:09;96815.06;;;17.76
6550;BMP280;15142;48.888;9.134;2023-08-01T08:52:39;96829.75;;;17.97
6550;BMP280;15142;48.888;9.134;2023-08-01T08:55:08;96823.47;;;17.98
6550;BMP280;15142;48.888;9.134;2023-08-01T08:57:38;96826.75;;;18.24
6550;BMP280;15142;48.888;9.134;2023-08-01T09:00:08;96837.16;;;18.31
6550;BMP280;15142;48.888;9.134;2023-08-01T09:02:37;96828.22;;;18.25
6550;BMP280;15142;48.888;9.134;2023-08-01T09:05:09;96842.16;;;18.18
6550;BMP280;15142;48.888;9.134;2023-08-01T09:07:41;96845.50;;;17.89
6550;BMP280;15142;48.888;9.134;2023-08-01T09:10:11;96841.72;;;17.83
6550;BMP280;15142;48.888;9.134;2023-08-01T09:12:39;96829.84;;;17.75
6550;BMP280;15142;48.888;9.134;2023-08-01T09:15:10;96840.88;;;17.76
6550;BMP280;15142;48.888;9.134;2023-08-01T09:17:48;96845.38;;;17.82
6550;BMP280;15142;48.888;9.134;2023-08-01T09:20:19;96853.63;;;17.91
6550;BMP280;15142;48.888;9.134;2023-08-01T09:22:47;96868.28;;;17.84
6550;BMP280;15142;48.888;9.134;2023-08-01T09:25:16;96858.78;;;17.91
6550;BMP280;15142;48.888;9.134;2023-08-01T09:27:45;96864.84;;;18.02
6550;BMP280;15142;48.888;9.134;2023-08-01T09:30:14;96858.53;;;17.99
6550;BMP280;15142;48.888;9.134;2023-08-01T09:32:51;96867.69;;;17.93
6550;BMP280;15142;48.888;9.134;2023-08-01T09:35:23;96865.22;;;18.04
6550;BMP280;15142;48.888;9.134;2023-08-01T09:37:52;96870.28;;;18.22
6550;BMP280;15142;48.888;9.134;2023-08-01T09:40:21;96871.00;;;18.23
6550;BMP280;15142;48.888;9.134;2023-08-01T09:42:50;96881.84;;;18.35
6550;BMP280;15142;48.888;9.134;2023-08-01T09:45:18;96884.47;;;18.39
6550;BMP280;15142;48.888;9.134;2023-08-01T09:47:47;96875.56;;;18.33
6550;BMP280;15142;48.888;9.134;2023-08-01T09:50:23;96880.22;;;18.21
6550;BMP280;15142;48.888;9.134;2023-08-01T09:52:51;96871.28;;;18.15
6550;BMP280;15142;48.888;9.134;2023-08-01T09:55:25;96872.75;;;18.16
6550;BMP280;15142;48.888;9.134;2023-08-01T09:57:53;96887.78;;;18.07
6550;BMP280;15142;48.888;9.134;2023-08-01T10:00:25;96878.34;;;18.21
6550;BMP280;15142;48.888;9.134;2023-08-01T10:02:55;96870.97;;;18.20
6550;BMP280;15142;48.888;9.134;2023-08-01T10:05:29;96869.41;;;18.12
6550;BMP280;15142;48.888;9.134;2023-08-01T10:07:59;96885.00;;;18.22
6550;BMP280;15142;48.888;9.134;2023-08-01T10:10:29;96887.69;;;18.29
6550;BMP280;15142;48.888;9.134;2023-08-01T10:13:00;96891.03;;;18.29
6550;BMP280;15142;48.888;9.134;2023-08-01T10:15:29;96896.38;;;18.18
6550;BMP280;15142;48.888;9.134;2023-08-01T10:17:58;96894.13;;;18.16
6550;BMP280;15142;48.888;9.134;2023-08-01T10:20:30;96886.06;;;18.18
6550;BMP280;15142;48.888;9.134;2023-08-01T10:23:00;96882.81;;;18.21
6550;BMP280;15142;48.888;9.134;2023-08-01T10:25:29;96872.81;;;18.19
6550;BMP280;15142;48.888;9.134;2023-08-01T10:27:59;96893.81;;;18.18
6550;BMP280;15142;48.888;9.134;2023-08-01T10:30:28;96887.38;;;18.05
6550;BMP280;15142;48.888;9.134;2023-08-01T10:32:58;96904.44;;;18.13
6550;BMP280;15142;48.888;9.134;2023-08-01T10:35:38;96903.47;;;18.21
6550;BMP280;15142;48.888;9.134;2023-08-01T10:38:08;96912.06;;;18.64
6550;BMP280;15142;48.888;9.134;2023-08-01T10:40:38;96900.94;;;18.92
6550;BMP280;15142;48.888;9.134;2023-08-01T10:43:19;96896.78;;;19.24
6550;BMP280;15142;48.888;9.134;2023-08-01T10:45:48;96909.25;;;19.61
6550;BMP280;15142;48.888;9.134;2023-08-01T10:48:28;96900.94;;;19.95
6550;BMP280;15142;48.888;9.134;2023-08-01T10:50:59;96889.09;;;19.90
6550;BMP280;15142;48.888;9.134;2023-08-01T10:53:37;96895.81;;;20.02
6550;BMP280;15142;48.888;9.134;2023-08-01T10:56:07;96885.59;;;20.46
6550;BMP280;15142;48.888;9.134;2023-08-01T10:58:35;96887.81;;;20.51
6550;BMP280;15142;48.888;9.134;2023-08-01T11:01:04;96893.75;;;20.55
6550;BMP280;15142;48.888;9.134;2023-08-01T11:03:36;96884.91;;;20.70
6550;BMP280;15142;48.888;9.134;2023-08-01T11:06:07;96897.13;;;20.83
6550;BMP280;15142;48.888;9.134;2023-08-01T11:08:37;96908.63;;;21.34
6550;BMP280;15142;48.888;9.134;2023-08-01T11:11:08;96903.03;;;21.56
6550;BMP280;15142;48.888;9.134;2023-08-01T11:13:38;96909.72;;;20.71
6550;BMP280;15142;48.888;9.134;2023-08-01T11:16:07;96913.28;;;20.29
6550;BMP280;15142;48.888;9.134;2023-08-01T11:18:41;96910.28;;;20.20
6550;BMP280;15142;48.888;9.134;2023-08-01T11:21:23;96916.44;;;21.37
6550;BMP280;15142;48.888;9.134;2023-08-01T11:23:53;96920.00;;;22.01
6550;BMP280;15142;48.888;9.134;2023-08-01T11:26:21;96911.78;;;22.20
6550;BMP280;15142;48.888;9.134;2023-08-01T11:28:50;96925.84;;;22.22
6550;BMP280;15142;48.888;9.134;2023-08-01T11:31:19;96923.69;;;22.81
6550;BMP280;15142;48.888;9.134;2023-08-01T11:33:55;96930.97;;;22.46
6550;BMP280;15142;48.888;9.134;2023-08-01T11:36:28;96916.91;;;22.27
6550;BMP280;15142;48.888;9.134;2023-08-01T11:38:58;96929.97;;;22.17
6550;BMP280;15142;48.888;9.134;2023-08-01T11:41:28;96925.19;;;22.08
6550;BMP280;15142;48.888;9.134;2023-08-01T11:44:01;96929.13;;;22.37
6550;BMP280;15142;48.888;9.134;2023-08-01T11:46:34;96926.09;;;23.05
6550;BMP280;15142;48.888;9.134;2023-08-01T11:49:03;96915.84;;;22.85
6550;BMP280;15142;48.888;9.134;2023-08-01T11:51:41;96927.81;;;22.72
6550;BMP280;15142;48.888;9.134;2023-08-01T11:54:10;96933.38;;;23.27
6550;BMP280;15142;48.888;9.134;2023-08-01T11:56:40;96928.38;;;23.43
6550;BMP280;15142;48.888;9.134;2023-08-01T11:59:10;96939.03;;;22.59
6550;BMP280;15142;48.888;9.134;2023-08-01T12:01:39;96938.59;;;22.77
6550;BMP280;15142;48.888;9.134;2023-08-01T12:04:08;96940.94;;;23.08
6550;BMP280;15142;48.888;9.134;2023-08-01T12:06:36;96932.22;;;22.82
6550;BMP280;15142;48.888;9.134;2023-08-01T12:09:10;96937.16;;;23.16
6550;BMP280;15142;48.888;9.134;2023-08-01T12:11:40;96919.88;;;23.36
6550;BMP280;15142;48.888;9.134;2023-08-01T12:14:10;96923.03;;;23.17
6550;BMP280;15142;48.888;9.134;2023-08-01T12:16:40;96941.63;;;23.92
6550;BMP280;15142;48.888;9.134;2023-08-01T12:19:10;96935.94;;;23.67
6550;BMP280;15142;48.888;9.134;2023-08-01T12:21:39;96925.22;;;23.18
6550;BMP280;15142;48.888;9.134;2023-08-01T12:24:10;96941.97;;;23.61
6550;BMP280;15142;48.888;9.134;2023-08-01T12:26:39;96947.28;;;23.04
6550;BMP280;15142;48.888;9.134;2023-08-01T12:29:07;96932.34;;;23.87
6550;BMP280;15142;48.888;9.134;2023-08-01T12:31:36;96942.59;;;23.71
6550;BMP280;15142;48.888;9.134;2023-08-01T12:34:05;96938.47;;;24.62
6550;BMP280;15142;48.888;9.134;2023-08-01T12:36:34;96944.00;;;24.12
6550;BMP280;15142;48.888;9.134;2023-08-01T12:39:02;96947.47;;;23.26
6550;BMP280;15142;48.888;9.134;2023-08-01T12:41:38;96930.59;;;23.01
6550;BMP280;15142;48.888;9.134;2023-08-01T12:44:07;96937.38;;;24.04
6550;BMP280;15142;48.888;9.134;2023-08-01T12:46:36;96935.25;;;24.51
6550;BMP280;15142;48.888;9.134;2023-08-01T12:49:04;96939.31;;;24.56
6550;BMP280;15142;48.888;9.134;2023-08-01T12:51:33;96947.22;;;24.49
6550;BMP280;15142;48.888;9.134;2023-08-01T12:54:02;96932.97;;;23.69
6550;BMP280;15142;48.888;9.134;2023-08-01T12:56:31;96935.00;;;23.84
6550;BMP280;15142;48.888;9.134;2023-08-01T12:59:02;96938.94;;;23.98
6550;BMP280;15142;48.888;9.134;2023-08-01T13:01:31;96950.09;;;25.06
6550;BMP280;15142;48.888;9.134;2023-08-01T13:03:59;96942.69;;;24.79
6550;BMP280;15142;48.888;9.134;2023-08-01T13:06:28;96931.50;;;24.30
6550;BMP280;15142;48.888;9.134;2023-08-01T13:08:57;96931.06;;;24.31
6550;BMP280;15142;48.888;9.134;2023-08-01T13:11:26;96933.84;;;25.18
6550;BMP280;15142;48.888;9.134;2023-08-01T13:13:54;96957.22;;;25.67
6550;BMP280;15142;48.888;9.134;2023-08-01T13:16:25;96948.63;;;25.28
6550;BMP280;15142;48.888;9.134;2023-08-01T13:18:54;96942.91;;;24.10
6550;BMP280;15142;48.888;9.134;2023-08-01T13:21:22;96946.16;;;24.17
6550;BMP280;15142;48.888;9.134;2023-08-01T13:23:51;96956.09;;;24.55
6550;BMP280;15142;48.888;9.134;2023-08-01T13:26:20;96948.91;;;24.88
6550;BMP280;15142;48.888;9.134;2023-08-01T13:28:48;96943.00;;;24.58
6550;BMP280;15142;48.888;9.134;2023-08-01T13:31:17;96939.59;;;25.10
6550;BMP280;15142;48.888;9.134;2023-08-01T13:33:48;96935.06;;;25.33
6550;BMP280;15142;48.888;9.134;2023-08-01T13:36:17;96933.50;;;24.94
6550;BMP280;15142;48.888;9.134;2023-08-01T13:38:46;96927.25;;;25.10
6550;BMP280;15142;48.888;9.134;2023-08-01T13:41:14;96939.41;;;25.20
6550;BMP280;15142;48.888;9.134;2023-08-01T13:43:43;96942.72;;;25.24
6550;BMP280;15142;48.888;9.134;2023-08-01T13:46:12;96921.47;;;24.99
6550;BMP280;15142;48.888;9.134;2023-08-01T13:48:42;96934.16;;;24.23
6550;BMP280;15142;48.888;9.134;2023-08-01T13:51:13;96938.56;;;24.55
6550;BMP280;15142;48.888;9.134;2023-08-01T13:53:43;96933.09;;;24.17
6550;BMP280;15142;48.888;9.134;2023-08-01T13:56:11;96935.63;;;23.95
6550;BMP280;15142;48.888;9.134;2023-08-01T13:58:45;96931.81;;;24.32
6550;BMP280;15142;48.888;9.134;2023-08-01T14:01:16;96943.97;;;23.83
6550;BMP280;15142;48.888;9.134;2023-08-01T14:03:44;96935.63;;;23.95
6550;BMP280;15142;48.888;9.134;2023-08-01T14:06:16;96929.06;;;23.80
6550;BMP280;15142;48.888;9.134;2023-08-01T14:08:44;96933.59;;;24.09
6550;BMP280;15142;48.888;9.134;2023-08-01T14:11:13;96922.16;;;23.99
6550;BMP280;15142;48.888;9.134;2023-08-01T14:13:41;96932.72;;;23.89
6550;BMP280;15142;48.888;9.134;2023-08-01T14:16:10;96928.34;;;24.12
6550;BMP280;15142;48.888;9.134;2023-08-01T14:18:38;96927.81;;;24.24
6550;BMP280;15142;48.888;9.134;2023-08-01T14:21:08;96924.34;;;23.71
6550;BMP280;15142;48.888;9.134;2023-08-01T14:23:39;96916.84;;;23.01
6550;BMP280;15142;48.888;9.134;2023-08-01T14:26:09;96921.25;;;22.57
6550;BMP280;15142;48.888;9.134;2023-08-01T14:28:37;96930.34;;;22.86
6550;BMP280;15142;48.888;9.134;2023-08-01T14:31:06;96927.56;;;23.06
6550;BMP280;15142;48.888;9.134;2023-08-01T14:33:35;96927.03;;;23.65